createdAt,value
2023-02-20T09:00:32.738Z,-0.4
2023-02-20T09:05:31.473Z,2.9
2023-02-20T09:10:31.180Z,3.0
2023-02-20T09:15:31.199Z,3.0
2023-02-20T09:20:31.173Z,3.1
2023-02-20T09:25:31.234Z,3.1
2023-02-20T09:30:31.203Z,3.2
2023-02-20T09:35:31.096Z,3.2
2023-02-20T09:40:31.111Z,3.2
2023-02-20T09:45:31.078Z,3.1
2023-02-20T09:50:31.015Z,3.0
2023-02-20T09:55:31.136Z,3.0
2023-02-20T10:00:31.027Z,2.9
2023-02-20T10:05:31.025Z,2.9
2023-02-20T10:10:31.091Z,2.8
2023-02-20T10:15:30.996Z,2.9
2023-02-20T10:20:31.029Z,2.9
2023-02-20T10:25:31.010Z,3.0
2023-02-20T10:30:31.408Z,3.1
2023-02-20T10:35:31.023Z,3.3
2023-02-20T10:40:30.982Z,3.5
2023-02-20T10:45:30.984Z,3.7
2023-02-20T10:50:30.919Z,3.8
2023-02-20T10:55:30.992Z,4.0
2023-02-20T11:00:31.194Z,4.0
2023-02-20T11:05:33.266Z,4.1
2023-02-20T11:10:30.999Z,4.2
2023-02-20T11:15:31.085Z,4.4
2023-02-20T11:20:30.983Z,4.4
2023-02-20T11:25:30.993Z,4.5
2023-02-20T11:30:31.105Z,4.5
2023-02-20T11:35:31.861Z,4.5
2023-02-20T11:40:30.880Z,4.6
2023-02-20T11:45:30.865Z,4.6
2023-02-20T11:50:30.843Z,4.7
2023-02-20T11:55:30.856Z,4.8
2023-02-20T12:00:30.809Z,4.8
2023-02-20T12:05:30.865Z,4.9
2023-02-20T12:10:30.876Z,5.0
2023-02-20T12:15:30.733Z,5.1
2023-02-20T12:20:30.805Z,5.2
2023-02-20T12:25:30.836Z,5.3
2023-02-20T12:30:30.901Z,5.4
2023-02-20T12:35:30.783Z,5.5
2023-02-20T12:40:30.783Z,5.5
2023-02-20T12:50:30.717Z,5.7
2023-02-20T12:55:30.697Z,5.9
2023-02-20T13:00:30.732Z,6.1
2023-02-20T13:05:31.331Z,6.2
2023-02-20T13:10:30.762Z,6.3
2023-02-20T13:15:30.756Z,6.4
2023-02-20T13:20:30.654Z,6.6
2023-02-20T13:25:31.392Z,6.6
2023-02-20T13:30:31.109Z,6.6
2023-02-20T13:35:30.644Z,6.6
2023-02-20T13:40:30.622Z,6.6
2023-02-20T13:45:30.727Z,6.6
2023-02-20T13:50:30.619Z,6.6
2023-02-20T13:55:30.630Z,6.6
2023-02-20T14:00:30.619Z,6.7
2023-02-20T14:05:30.626Z,6.7
2023-02-20T14:10:30.626Z,6.7
2023-02-20T14:15:30.614Z,6.7
2023-02-20T14:20:30.557Z,6.7
2023-02-20T14:25:30.667Z,6.7
2023-02-20T14:30:30.645Z,6.7
2023-02-20T14:35:33.262Z,6.7
2023-02-20T14:40:30.536Z,6.8
2023-02-20T14:45:31.371Z,6.8
2023-02-20T14:50:30.537Z,6.8
2023-02-20T14:55:31.217Z,6.8
2023-02-20T15:00:30.633Z,6.8
2023-02-20T15:05:30.519Z,6.8
2023-02-20T15:10:30.490Z,6.8
2023-02-20T15:15:30.442Z,6.8
2023-02-20T15:20:30.547Z,6.9
2023-02-20T15:25:30.575Z,7.0
2023-02-20T15:30:30.717Z,7.1
2023-02-20T15:35:30.546Z,7.1
2023-02-20T15:40:30.585Z,7.2
2023-02-20T15:45:30.518Z,7.3
2023-02-20T15:50:30.446Z,7.3
2023-02-20T15:55:30.572Z,7.4
2023-02-20T16:00:30.478Z,7.4
2023-02-20T16:05:30.473Z,7.5
2023-02-20T16:10:30.447Z,7.5
2023-02-20T16:15:30.492Z,7.5
2023-02-20T16:20:30.459Z,7.5
2023-02-20T16:25:30.473Z,7.6
2023-02-20T16:30:33.905Z,7.6
2023-02-20T16:35:30.616Z,7.7
2023-02-20T16:40:30.390Z,7.6
2023-02-20T16:45:30.381Z,7.7
2023-02-20T16:50:30.411Z,7.7
2023-02-20T16:55:30.460Z,7.7
2023-02-20T17:00:30.475Z,7.7
2023-02-20T17:05:30.430Z,7.7
2023-02-20T17:10:30.367Z,7.7
2023-02-20T17:15:30.504Z,7.7
2023-02-20T17:20:30.342Z,7.8
2023-02-20T17:25:30.332Z,7.8
2023-02-20T17:30:30.373Z,7.8
2023-02-20T17:35:30.277Z,7.8
2023-02-20T17:40:30.337Z,7.9
2023-02-20T17:45:30.343Z,7.9
2023-02-20T17:50:30.311Z,7.9
2023-02-20T17:55:30.858Z,7.9
2023-02-20T18:00:30.490Z,7.9
2023-02-20T18:05:30.202Z,7.9
2023-02-20T18:10:30.328Z,7.9
2023-02-20T18:15:30.417Z,7.9
2023-02-20T18:20:30.192Z,8.0
2023-02-20T18:25:40.082Z,8.0
2023-02-20T18:30:30.459Z,8.1
2023-02-20T18:35:30.276Z,8.1
2023-02-20T18:40:30.259Z,8.1
2023-02-20T18:45:30.669Z,8.2
2023-02-20T18:50:30.143Z,8.2
2023-02-20T18:55:30.153Z,8.2
2023-02-20T19:00:30.213Z,8.2
2023-02-20T19:05:30.267Z,8.3
2023-02-20T19:10:30.482Z,8.3
2023-02-20T19:15:30.118Z,8.3
2023-02-20T19:20:30.400Z,8.3
2023-02-20T19:25:30.094Z,8.3
2023-02-20T19:30:30.222Z,8.3
2023-02-20T19:35:30.385Z,8.3
2023-02-20T19:40:30.084Z,8.3
2023-02-20T19:45:30.451Z,8.3
2023-02-20T19:50:30.073Z,8.3
2023-02-20T19:55:32.473Z,8.3
2023-02-20T20:00:30.133Z,8.3
2023-02-20T20:05:30.816Z,8.3
2023-02-20T20:10:30.476Z,8.3
2023-02-20T20:15:30.529Z,8.3
2023-02-20T20:20:29.989Z,8.3
2023-02-20T20:25:30.077Z,8.3
2023-02-20T20:30:30.626Z,8.3
2023-02-20T20:35:30.099Z,8.3
2023-02-20T20:40:29.954Z,8.4
2023-02-20T20:45:30.209Z,8.4
2023-02-20T20:50:29.989Z,8.4
2023-02-20T20:55:30.012Z,8.4
2023-02-20T21:00:30.035Z,8.4
2023-02-20T21:05:30.006Z,8.3
2023-02-20T21:10:29.942Z,8.4
2023-02-20T21:15:30.061Z,8.4
2023-02-20T21:20:29.919Z,8.4
2023-02-20T21:25:29.868Z,8.4
2023-02-20T21:30:29.922Z,8.4
2023-02-20T21:35:30.228Z,8.4
2023-02-20T21:40:29.792Z,8.5
2023-02-20T21:45:30.854Z,8.5
2023-02-20T21:50:29.855Z,8.5
2023-02-20T21:55:29.858Z,8.5
2023-02-20T22:00:29.774Z,8.6
2023-02-20T22:05:29.753Z,8.6
2023-02-20T22:10:29.827Z,8.6
2023-02-20T22:15:29.802Z,8.6
2023-02-20T22:20:29.741Z,8.7
2023-02-20T22:25:29.813Z,8.7
2023-02-20T22:30:29.898Z,8.8
2023-02-20T22:35:29.741Z,8.7
2023-02-20T22:40:29.820Z,8.7
2023-02-20T22:45:29.847Z,8.7
2023-02-20T22:50:29.726Z,8.6
2023-02-20T22:55:29.747Z,8.5
2023-02-20T23:00:29.757Z,8.4
2023-02-20T23:05:29.728Z,8.4
2023-02-20T23:10:29.681Z,8.4
2023-02-20T23:15:29.683Z,8.4
2023-02-20T23:20:29.718Z,8.4
2023-02-20T23:25:29.673Z,8.4
2023-02-20T23:30:29.695Z,8.4
2023-02-20T23:35:29.723Z,8.4
2023-02-20T23:40:36.483Z,8.4
2023-02-20T23:45:29.685Z,8.4
2023-02-20T23:50:29.617Z,8.3
2023-02-20T23:55:29.801Z,8.3
